Time;durP1;ratioP1;P1;durP2;ratioP2;P2;SDS_P1;SDS_P2;PMS_P1;PMS_P2;Temp;Humidity;BMP_temperature;BMP_pressure;BME280_temperature;BME280_humidity;BME280_pressure;Samples;Min_cycle;Max_cycle;Signal;HPM_P1;HPM_P2
2023/01/17 00:01:42;;;;;;;6.05;3.10;;;1.80;99.90;;;0.50;100.00;94601.81;5050387;28;20419;-73
2023/01/17 00:09:51;;;;;;;6.38;3.33;;;1.80;99.90;;;0.49;100.00;94609.88;5050103;28;20755;-73
2023/01/17 00:12:18;;;;;;;7.35;3.40;;;1.80;99.90;;;0.56;100.00;94606.00;5050174;28;20878;-72
2023/01/17 00:14:43;;;;;;;7.70;3.72;;;1.80;99.90;;;0.52;100.00;94604.19;5050113;28;20409;-72
2023/01/17 00:17:09;;;;;;;6.65;3.70;;;1.80;99.90;;;0.51;100.00;94613.78;5050309;28;20501;-72
2023/01/17 01:34:37;;;;;;;12.40;4.80;;;1.60;99.90;;;0.21;100.00;94692.50;5053420;28;20447;-72
2023/01/17 01:37:03;;;;;;;9.63;4.80;;;1.50;99.90;;;0.23;100.00;94692.22;5053417;28;20885;-72
2023/01/17 01:39:29;;;;;;;15.38;5.00;;;1.50;99.90;;;0.22;100.00;94704.47;5053298;28;20405;-73
2023/01/17 01:41:55;;;;;;;16.20;5.47;;;1.50;99.90;;;0.21;100.00;94692.50;5053072;28;20417;-73
2023/01/17 01:44:49;;;;;;;12.95;5.50;;;1.50;99.90;;;0.21;100.00;94692.50;5053175;28;20397;-72
2023/01/17 01:47:23;;;;;;;12.73;5.07;;;1.50;99.90;;;0.18;100.00;94698.19;5053214;28;20774;-73
2023/01/17 01:49:50;;;;;;;14.20;5.13;;;1.50;99.90;;;0.19;100.00;94698.97;5052798;28;20413;-72
2023/01/17 01:52:18;;;;;;;13.50;5.43;;;1.50;99.90;;;0.16;100.00;94699.47;5052473;28;20398;-73
2023/01/17 01:54:49;;;;;;;13.02;5.13;;;1.40;99.90;;;0.13;100.00;94690.38;5052999;28;20393;-73
2023/01/17 01:57:20;;;;;;;14.77;5.40;;;1.40;99.90;;;0.21;100.00;94699.53;5053029;28;20858;-72
2023/01/17 01:59:54;;;;;;;15.93;5.35;;;1.50;99.90;;;0.27;100.00;94696.69;5053128;28;20416;-73
2023/01/17 02:02:20;;;;;;;10.98;4.93;;;1.60;99.90;;;0.27;100.00;94696.69;5052750;28;20414;-73
2023/01/17 02:04:47;;;;;;;16.27;5.28;;;1.60;99.90;;;0.30;100.00;94701.38;5052911;28;20416;-72
2023/01/17 02:07:20;;;;;;;16.25;5.82;;;1.60;99.90;;;0.28;100.00;94693.06;5052823;28;20397;-73
2023/01/17 02:09:45;;;;;;;19.02;5.50;;;1.60;99.90;;;0.27;100.00;94688.88;5034690;28;20412;-72
2023/01/17 02:12:12;;;;;;;18.00;5.47;;;1.60;99.90;;;0.29;100.00;94686.03;5034627;28;20492;-72
2023/01/17 02:14:38;;;;;;;20.50;5.82;;;1.60;99.90;;;0.30;100.00;94683.16;5034822;28;20794;-73
2023/01/17 02:17:18;;;;;;;14.52;5.40;;;1.60;99.90;;;0.34;100.00;94689.44;5033755;28;20406;-73
2023/01/17 02:20:26;;;;;;;15.00;5.47;;;1.60;99.90;;;0.34;100.00;94686.06;5052373;28;20393;-73
2023/01/17 02:23:31;;;;;;;12.57;5.47;;;1.60;99.90;;;0.35;100.00;94680.59;5052082;28;20466;-72
2023/01/17 02:26:39;;;;;;;13.35;5.03;;;1.70;99.90;;;0.36;100.00;94684.00;5050279;28;20413;-73
2023/01/17 02:29:38;;;;;;;17.75;5.70;;;1.70;99.90;;;0.39;100.00;94693.88;5052383;28;20405;-73
2023/01/17 02:32:13;;;;;;;17.00;5.63;;;1.70;99.90;;;0.37;100.00;94691.56;5052022;28;20814;-72
2023/01/17 02:34:48;;;;;;;15.38;5.10;;;1.70;99.90;;;0.37;100.00;94691.56;5051927;28;20471;-73
2023/01/17 02:37:22;;;;;;;19.42;5.75;;;1.70;99.90;;;0.37;100.00;94690.78;5052050;28;20463;-72
2023/01/17 02:39:54;;;;;;;12.52;5.20;;;1.70;99.90;;;0.42;100.00;94687.41;5051693;28;20413;-73
2023/01/17 02:42:28;;;;;;;13.60;5.30;;;1.70;99.90;;;0.38;100.00;94687.88;5051744;28;20460;-72
2023/01/17 02:44:54;;;;;;;11.88;4.97;;;1.70;99.90;;;0.36;100.00;94682.19;5051690;28;20819;-72
2023/01/17 02:47:26;;;;;;;18.08;6.07;;;1.60;99.90;;;0.33;100.00;94687.88;5051767;28;20508;-72
2023/01/17 02:49:57;;;;;;;18.00;5.47;;;1.60;99.90;;;0.29;100.00;94686.81;5051535;28;20496;-72
2023/01/17 02:52:46;;;;;;;16.35;5.38;;;1.60;99.90;;;0.31;100.00;94673.53;5051355;28;20397;-72
2023/01/17 02:55:25;;;;;;;17.67;5.70;;;1.60;99.90;;;0.32;100.00;94682.91;5051305;28;20761;-72
2023/01/17 02:58:14;;;;;;;16.23;5.67;;;1.60;99.90;;;0.31;100.00;94679.53;5051668;28;20413;-72
2023/01/17 03:00:56;;;;;;;15.98;5.35;;;1.60;99.90;;;0.27;100.00;94678.47;5051381;28;20401;-73
2023/01/17 03:03:32;;;;;;;15.30;5.13;;;1.60;99.90;;;0.26;100.00;94669.09;5051177;28;20413;-72
2023/01/17 03:06:10;;;;;;;23.13;5.82;;;1.60;99.90;;;0.29;100.00;94678.25;5051395;28;20393;-73
2023/01/17 03:08:39;;;;;;;18.35;5.60;;;1.60;99.90;;;0.31;100.00;94674.31;5051389;28;20396;-73
2023/01/17 03:11:07;;;;;;;12.90;5.10;;;1.60;99.90;;;0.34;100.00;94676.44;5051192;28;20397;-73
2023/01/17 03:13:33;;;;;;;16.80;5.40;;;1.60;99.90;;;0.36;100.00;94676.19;5051098;28;20432;-72
2023/01/17 03:16:00;;;;;;;14.18;5.47;;;1.70;99.90;;;0.37;100.00;94675.16;5051375;28;20867;-72
2023/01/17 03:18:27;;;;;;;11.68;4.88;;;1.70;99.90;;;0.37;100.00;94680.38;5051270;28;20408;-72
2023/01/17 03:20:53;;;;;;;20.42;5.65;;;1.70;99.90;;;0.39;100.00;94683.47;5051025;28;20402;-72
2023/01/17 03:23:19;;;;;;;13.97;5.03;;;1.70;99.90;;;0.38;100.00;94681.91;5050825;28;20417;-73
2023/01/17 03:25:45;;;;;;;13.43;5.32;;;1.70;99.90;;;0.41;100.00;94688.44;5033371;28;20414;-72
2023/01/17 03:28:11;;;;;;;16.08;5.10;;;1.70;99.90;;;0.41;100.00;94691.03;5050675;28;20405;-73
2023/01/17 03:30:36;;;;;;;11.85;4.82;;;1.70;99.90;;;0.48;100.00;94688.97;5050876;28;20398;-73
2023/01/17 03:33:02;;;;;;;18.58;5.78;;;1.80;99.90;;;0.47;100.00;94688.19;5050813;28;20400;-73
2023/01/17 03:35:30;;;;;;;9.63;4.00;;;1.80;99.90;;;0.51;100.00;94702.28;5051125;28;20829;-73
2023/01/17 03:37:55;;;;;;;15.10;5.13;;;1.80;99.90;;;0.52;100.00;94714.25;5050910;28;20401;-73
2023/01/17 03:40:22;;;;;;;17.70;5.22;;;1.80;99.90;;;0.50;100.00;94712.94;5050720;28;20886;-72
2023/01/17 03:42:48;;;;;;;21.23;5.20;;;1.80;99.90;;;0.48;100.00;94707.19;5050598;28;20898;-72
2023/01/17 03:45:14;;;;;;;18.75;5.43;;;1.80;99.90;;;0.49;100.00;94716.56;5050633;28;20412;-72
2023/01/17 03:47:39;;;;;;;23.65;5.70;;;1.80;99.90;;;0.49;100.00;94716.56;5050734;28;20484;-72
2023/01/17 03:50:06;;;;;;;15.90;5.28;;;1.80;99.90;;;0.51;100.00;94712.69;5050462;28;20493;-72
2023/01/17 03:52:33;;;;;;;14.80;5.15;;;1.80;99.90;;;0.53;100.00;94708.00;5050368;28;20393;-72
2023/01/17 03:55:01;;;;;;;11.30;4.10;;;1.80;99.90;;;0.59;100.00;94709.59;5050405;28;20813;-72
2023/01/17 03:57:27;;;;;;;7.85;3.30;;;1.90;99.90;;;0.47;100.00;94716.03;5050609;28;20765;-73
2023/01/17 03:59:53;;;;;;;4.47;3.13;;;1.70;99.90;;;0.32;100.00;94709.72;5050535;28;20423;-72
2023/01/17 04:02:19;;;;;;;8.73;3.50;;;1.60;99.90;;;0.21;100.00;94695.09;5050415;28;20504;-72
2023/01/17 04:04:45;;;;;;;9.27;3.65;;;1.50;99.90;;;0.06;100.00;94695.00;5050415;28;20409;-73
2023/01/17 04:07:10;;;;;;;7.85;3.58;;;1.40;99.90;;;-0.04;100.00;94690.53;5050320;28;20434;-73
2023/01/17 04:09:38;;;;;;;6.75;4.03;;;1.30;99.90;;;-0.08;100.00;94699.88;5050219;28;20874;-72
2023/01/17 04:12:04;;;;;;;9.88;4.32;;;1.30;99.90;;;-0.12;100.00;94698.00;5050103;28;20890;-73
2023/01/17 04:14:30;;;;;;;8.37;4.57;;;1.20;99.90;;;-0.17;100.00;94703.19;5050171;28;20949;-72
2023/01/17 04:16:56;;;;;;;11.68;5.05;;;1.20;99.90;;;-0.23;100.00;94701.59;5050136;28;20410;-73
2023/01/17 04:19:22;;;;;;;14.10;5.00;;;1.10;99.90;;;-0.26;100.00;94699.47;5050154;28;20408;-72
2023/01/17 04:21:48;;;;;;;12.95;5.20;;;1.10;99.90;;;-0.24;100.00;94694.81;5049972;28;20424;-73
2023/01/17 04:24:14;;;;;;;18.80;5.53;;;1.10;99.90;;;-0.21;100.00;94689.09;5049801;28;20398;-72
2023/01/17 04:26:41;;;;;;;14.77;5.35;;;1.10;99.90;;;-0.24;100.00;94692.22;5049903;28;20913;-72
2023/01/17 04:29:07;;;;;;;12.35;4.85;;;1.10;99.90;;;-0.18;100.00;94697.19;5050021;28;20408;-72
2023/01/17 04:31:33;;;;;;;11.73;5.05;;;1.20;99.90;;;-0.13;100.00;94696.44;5049737;28;20401;-72
2023/01/17 04:33:59;;;;;;;15.47;5.07;;;1.20;99.90;;;-0.11;100.00;94695.16;5049982;28;20447;-73
2023/01/17 04:36:25;;;;;;;16.85;5.18;;;1.30;99.90;;;-0.07;100.00;94701.41;5069706;28;20517;-73
2023/01/17 04:38:51;;;;;;;14.23;4.82;;;1.30;99.90;;;-0.05;100.00;94699.34;5064194;28;20407;-73
2023/01/17 04:41:17;;;;;;;10.52;4.75;;;1.30;99.90;;;0.01;100.00;94710.56;5063542;28;20438;-75
2023/01/17 04:43:44;;;;;;;20.20;6.32;;;1.30;99.90;;;0.04;100.00;94710.06;5073740;28;20450;-73
2023/01/17 04:46:10;;;;;;;14.55;5.32;;;1.40;99.90;;;0.03;100.00;94710.31;5073917;28;20439;-73
2023/01/17 04:48:37;;;;;;;26.83;6.07;;;1.40;99.90;;;0.02;100.00;94719.94;5073953;28;20478;-72
2023/01/17 04:51:04;;;;;;;15.65;5.35;;;1.40;99.90;;;0.04;100.00;94717.09;5073655;28;20893;-72
2023/01/17 04:53:31;;;;;;;26.42;6.20;;;1.40;99.90;;;0.03;100.00;94726.72;5073513;28;20416;-72
2023/01/17 04:55:57;;;;;;;17.67;5.70;;;1.40;99.90;;;0.02;100.00;94727.75;5073916;28;20457;-72
2023/01/17 04:58:23;;;;;;;14.53;5.27;;;1.40;99.90;;;0.00;100.00;94716.81;5073804;28;20401;-72
2023/01/17 05:00:50;;;;;;;19.00;5.93;;;1.30;99.90;;;0.00;100.00;94716.81;5073678;28;20399;-72
2023/01/17 05:03:16;;;;;;;17.50;5.53;;;1.40;99.90;;;-0.01;100.00;94716.03;5073539;28;20417;-72
2023/01/17 05:05:42;;;;;;;13.77;5.70;;;1.40;99.90;;;-0.01;100.00;94716.03;5074087;28;20486;-72
2023/01/17 05:08:08;;;;;;;28.30;7.28;;;1.30;99.90;;;-0.01;100.00;94723.84;5073919;28;20498;-72
2023/01/17 05:10:34;;;;;;;23.58;6.85;;;1.40;99.90;;;-0.01;100.00;94723.84;5073761;28;20581;-72
2023/01/17 05:13:00;;;;;;;15.45;5.80;;;1.30;99.90;;;-0.01;100.00;94723.06;5073344;28;20956;-72
2023/01/17 05:15:26;;;;;;;19.57;6.80;;;1.30;99.90;;;0.02;100.00;94730.34;5073619;28;20399;-72
2023/01/17 05:17:54;;;;;;;22.33;6.60;;;1.40;99.90;;;0.00;100.00;94727.22;5073752;28;20495;-71
2023/01/17 05:20:22;;;;;;;30.27;7.80;;;1.30;99.90;;;-0.02;100.00;94724.09;5073482;28;20396;-72
2023/01/17 05:22:54;;;;;;;14.85;5.95;;;1.30;99.90;;;-0.09;100.00;94716.50;5073156;28;20415;-71
2023/01/17 05:25:20;;;;;;;16.75;6.07;;;1.30;99.90;;;-0.11;100.00;94715.97;5063507;28;20411;-72
2023/01/17 05:27:46;;;;;;;19.90;7.00;;;1.30;99.90;;;-0.08;100.00;94712.88;5073430;28;20898;-71
2023/01/17 05:30:13;;;;;;;40.67;8.07;;;1.30;99.90;;;-0.15;100.00;94717.47;5055471;28;20505;-71
2023/01/17 05:32:38;;;;;;;21.58;6.95;;;1.20;99.90;;;-0.21;100.00;94702.88;5052185;28;20411;-71
2023/01/17 05:35:07;;;;;;;22.17;6.87;;;1.20;99.90;;;-0.18;100.00;94701.59;5071772;28;20431;-71
2023/01/17 05:37:33;;;;;;;29.42;8.32;;;1.20;99.90;;;-0.16;100.00;94707.34;5073318;28;21351;-71
2023/01/17 05:39:59;;;;;;;23.87;8.03;;;1.20;99.90;;;-0.28;100.00;94712.72;5073190;28;20899;-72
2023/01/17 05:42:25;;;;;;;33.13;9.70;;;1.10;99.90;;;-0.36;100.00;94709.78;5073024;28;20860;-71
2023/01/17 05:44:51;;;;;;;27.70;9.40;;;1.00;99.90;;;-0.44;100.00;94705.81;5062401;28;20432;-71
2023/01/17 05:47:17;;;;;;;24.80;7.93;;;0.90;99.90;;;-0.52;100.00;94708.88;5072895;28;20475;-71
2023/01/17 05:49:43;;;;;;;31.07;9.77;;;0.90;99.90;;;-0.54;100.00;94697.97;5073151;28;20889;-71
2023/01/17 05:52:10;;;;;;;27.42;10.13;;;0.80;99.90;;;-0.62;100.00;94696.59;5068854;22;21568;-74
2023/01/17 05:54:36;;;;;;;40.22;11.07;;;0.70;99.90;;;-0.63;100.00;94692.44;5073135;28;20460;-77
2023/01/17 05:57:02;;;;;;;37.10;11.57;;;0.70;99.90;;;-0.65;100.00;94688.50;5055261;28;20792;-77
2023/01/17 05:59:28;;;;;;;40.42;15.05;;;0.70;99.90;;;-0.65;100.00;94683.31;5070166;28;20439;-75
2023/01/17 06:01:54;;;;;;;41.17;15.65;;;0.70;99.90;;;-0.66;100.00;94679.91;5064093;28;20407;-75
2023/01/17 06:04:20;;;;;;;36.43;11.80;;;0.70;99.90;;;-0.63;100.00;94673.47;5070921;28;20488;-75
2023/01/17 06:06:45;;;;;;;34.83;11.05;;;0.70;99.90;;;-0.66;100.00;94679.91;5062434;28;20786;-76
2023/01/17 06:09:13;;;;;;;28.80;10.23;;;0.70;99.90;;;-0.64;100.00;94674.47;5072083;28;20465;-76
2023/01/17 06:11:39;;;;;;;28.38;9.68;;;0.70;99.90;;;-0.55;100.00;94670.41;5072385;28;20400;-75
2023/01/17 06:14:04;;;;;;;39.90;10.65;;;0.80;99.90;;;-0.60;100.00;94667.78;5072767;28;20909;-77
2023/01/17 06:16:30;;;;;;;31.88;10.50;;;0.80;99.90;;;-0.69;100.00;94656.28;5073315;28;20399;-78
2023/01/17 06:18:56;;;;;;;31.58;10.82;;;0.70;99.90;;;-0.81;100.00;94654.59;5072724;28;20490;-76
2023/01/17 06:21:22;;;;;;;33.20;10.73;;;0.60;99.90;;;-0.82;100.00;94654.84;5072394;28;20403;-77
2023/01/17 06:23:48;;;;;;;33.28;11.20;;;0.50;99.90;;;-0.87;100.00;94649.63;5072379;28;20730;-76
2023/01/17 06:26:15;;;;;;;32.65;10.95;;;0.50;99.90;;;-0.95;100.00;94647.47;5072451;28;20435;-77
2023/01/17 06:28:41;;;;;;;29.45;10.70;;;0.40;99.90;;;-1.01;100.00;94638.84;5072347;28;20399;-77
2023/01/17 06:31:08;;;;;;;40.53;11.53;;;0.30;99.90;;;-1.07;100.00;94642.44;5072078;28;20426;-76
2023/01/17 06:33:34;;;;;;;41.90;12.63;;;0.30;99.90;;;-1.09;100.00;94635.91;5072094;28;20400;-76
2023/01/17 06:36:00;;;;;;;39.42;12.63;;;0.30;99.90;;;-1.14;100.00;94641.84;5072154;28;20480;-76
2023/01/17 06:38:28;;;;;;;31.02;11.40;;;0.20;99.90;;;-1.19;100.00;94639.19;5072214;28;20403;-76
2023/01/17 06:40:57;;;;;;;33.45;11.95;;;0.20;99.90;;;-1.22;100.00;94635.28;5072134;28;20413;-76
2023/01/17 06:43:26;;;;;;;38.90;12.65;;;0.20;99.90;;;-1.21;100.00;94651.66;5053677;28;20792;-77
2023/01/17 06:45:54;;;;;;;38.40;13.57;;;0.20;99.90;;;-1.26;100.00;94648.97;5072138;28;20403;-76
2023/01/17 06:48:20;;;;;;;31.75;13.25;;;0.10;99.90;;;-1.26;100.00;94654.16;5071943;28;20423;-76
2023/01/17 06:50:47;;;;;;;29.83;14.10;;;0.10;99.90;;;-1.26;100.00;94654.16;5070442;28;20431;-76
2023/01/17 06:53:12;;;;;;;37.58;13.02;;;0.20;99.90;;;-1.19;100.00;94655.53;5071546;28;20396;-76
2023/01/17 06:55:39;;;;;;;33.25;13.18;;;0.20;99.90;;;-1.18;100.00;94651.91;5070575;28;20423;-76
2023/01/17 06:58:05;;;;;;;32.85;12.65;;;0.20;99.90;;;-1.18;100.00;94657.13;5071820;28;20807;-76
2023/01/17 07:00:33;;;;;;;48.03;14.45;;;0.20;99.90;;;-1.16;100.00;94654.28;5071691;28;20960;-76
2023/01/17 07:03:00;;;;;;;42.45;14.98;;;0.20;99.90;;;-1.18;100.00;94657.13;5070960;28;20494;-75
2023/01/17 07:05:27;;;;;;;40.33;14.40;;;0.20;99.90;;;-1.19;100.00;94642.56;5071291;28;20410;-76
2023/01/17 07:07:53;;;;;;;41.50;14.10;;;0.20;99.90;;;-1.14;100.00;94651.44;5071667;28;20406;-76
2023/01/17 07:10:20;;;;;;;37.67;13.50;;;0.20;99.90;;;-1.11;100.00;94636.16;5071548;28;20446;-76
2023/01/17 07:12:46;;;;;;;36.53;14.32;;;0.30;99.90;;;-1.07;100.00;94639.84;5071178;28;20400;-76
2023/01/17 07:15:12;;;;;;;34.53;13.43;;;0.30;99.90;;;-1.05;100.00;94634.41;5071443;28;20472;-76
2023/01/17 07:17:40;;;;;;;38.17;13.40;;;0.30;99.90;;;-1.03;100.00;94643.50;5071469;28;20465;-76
2023/01/17 07:20:07;;;;;;;35.42;14.77;;;0.30;99.90;;;-1.03;100.00;94633.13;5071342;28;20400;-76
2023/01/17 07:22:34;;;;;;;38.65;14.68;;;0.30;99.90;;;-1.00;100.00;94640.41;5071046;28;20818;-76
2023/01/17 07:25:00;;;;;;;31.30;13.75;;;0.40;99.90;;;-0.94;100.00;94639.44;5071147;28;20961;-76
2023/01/17 07:27:29;;;;;;;33.33;14.43;;;0.40;99.90;;;-0.92;100.00;94634.78;5071287;28;20839;-76
2023/01/17 07:29:55;;;;;;;37.70;15.80;;;0.40;99.90;;;-0.86;100.00;94625.22;5071157;28;20396;-76
2023/01/17 07:32:20;;;;;;;31.03;14.67;;;0.50;99.90;;;-0.83;100.00;94624.75;5070979;28;20910;-76
2023/01/17 07:34:48;;;;;;;39.97;14.70;;;0.50;99.90;;;-0.80;100.00;94611.25;5071135;28;20498;-76
2023/01/17 07:37:14;;;;;;;32.03;13.85;;;0.60;99.90;;;-0.77;100.00;94612.56;5070981;28;20412;-76
2023/01/17 07:39:39;;;;;;;30.83;13.57;;;0.60;99.90;;;-0.78;100.00;94604.00;5071036;28;20807;-76
2023/01/17 07:42:05;;;;;;;33.27;15.60;;;0.60;99.90;;;-0.83;100.00;94602.13;5070517;28;20469;-76
2023/01/17 07:44:31;;;;;;;33.75;15.80;;;0.50;99.90;;;-0.87;100.00;94598.47;5070788;28;20417;-77
2023/01/17 07:46:57;;;;;;;35.23;14.80;;;0.50;99.90;;;-0.90;100.00;94601.53;5070791;28;20403;-76
2023/01/17 07:49:23;;;;;;;29.33;15.38;;;0.50;99.90;;;-0.89;100.00;94602.34;5070746;28;20400;-77
2023/01/17 07:51:50;;;;;;;35.63;15.77;;;0.50;99.90;;;-0.91;100.00;94610.41;5070447;28;20395;-76
2023/01/17 07:54:16;;;;;;;32.88;13.80;;;0.50;99.90;;;-0.92;100.00;94601.03;5070392;28;20396;-76
2023/01/17 07:56:45;;;;;;;44.13;14.65;;;0.50;99.90;;;-0.91;100.00;94605.19;5070727;28;20452;-76
2023/01/17 07:59:12;;;;;;;33.10;14.43;;;0.50;99.90;;;-0.91;100.00;94605.19;5070648;28;20992;-76
2023/01/17 08:01:37;;;;;;;38.22;14.93;;;0.50;99.90;;;-0.94;100.00;94610.88;5070476;28;20442;-76
2023/01/17 08:04:04;;;;;;;30.70;14.27;;;0.40;99.90;;;-0.89;100.00;94613.50;5069831;28;20419;-76
2023/01/17 08:06:29;;;;;;;34.30;15.32;;;0.50;99.90;;;-0.88;100.00;94611.69;5070378;28;20399;-76
2023/01/17 08:08:58;;;;;;;33.35;15.20;;;0.50;99.90;;;-0.91;100.00;94599.22;5070473;28;20907;-76
2023/01/17 08:11:24;;;;;;;38.63;14.95;;;0.40;99.90;;;-0.91;100.00;94597.41;5068965;28;20491;-76
2023/01/17 08:13:56;;;;;;;34.80;16.08;;;0.50;99.90;;;-0.88;100.00;94599.50;5070164;28;20469;-76
2023/01/17 08:16:22;;;;;;;37.75;15.70;;;0.50;99.90;;;-0.83;100.00;94607.31;5069138;28;20417;-76
2023/01/17 08:18:48;;;;;;;40.37;15.40;;;0.50;99.90;;;-0.77;100.00;94607.38;5070560;28;21240;-76
2023/01/17 08:21:15;;;;;;;37.38;16.52;;;0.60;99.90;;;-0.76;100.00;94611.53;5070375;28;20408;-76
2023/01/17 08:23:41;;;;;;;40.47;17.77;;;0.60;99.90;;;-0.74;100.00;94605.06;5069787;28;20776;-77
2023/01/17 08:26:09;;;;;;;40.92;16.90;;;0.60;99.90;;;-0.69;100.00;94604.31;5070278;28;20453;-76
2023/01/17 08:28:34;;;;;;;37.58;16.23;;;0.70;99.90;;;-0.63;100.00;94608.50;5070319;28;20407;-76
2023/01/17 08:31:07;;;;;;;28.65;14.13;;;0.70;99.90;;;-0.55;100.00;94606.25;5066711;28;20569;-76
2023/01/17 08:33:32;;;;;;;34.10;14.40;;;0.80;99.90;;;-0.53;100.00;94604.19;5067157;28;20404;-77
2023/01/17 08:35:58;;;;;;;36.10;16.00;;;0.80;99.90;;;-0.49;100.00;94599.25;5069590;28;20411;-76
2023/01/17 08:38:24;;;;;;;35.37;16.17;;;0.90;99.90;;;-0.40;100.00;94600.38;5069910;28;20404;-77
2023/01/17 08:40:50;;;;;;;41.13;16.80;;;0.90;99.90;;;-0.34;100.00;94601.16;5068056;28;20404;-77
2023/01/17 08:43:17;;;;;;;36.45;17.20;;;1.00;99.90;;;-0.30;100.00;94597.06;5065567;28;20477;-78
2023/01/17 08:45:44;;;;;;;30.45;15.48;;;1.00;99.90;;;-0.25;100.00;94599.66;5069754;28;20966;-78
2023/01/17 08:48:10;;;;;;;34.30;16.73;;;1.00;99.90;;;-0.19;100.00;94602.03;5065260;28;20969;-77
2023/01/17 08:50:36;;;;;;;35.22;17.35;;;1.10;99.90;;;-0.15;100.00;94590.09;5068757;28;20404;-76
2023/01/17 08:53:04;;;;;;;36.72;15.80;;;1.10;99.90;;;-0.11;100.00;94585.97;5067526;28;20427;-78
2023/01/17 08:55:32;;;;;;;36.65;17.08;;;1.20;99.90;;;-0.11;100.00;94590.38;5060931;28;20397;-78
2023/01/17 08:57:58;;;;;;;31.08;16.08;;;1.20;99.90;;;-0.15;100.00;94592.69;5051562;28;20983;-78
2023/01/17 09:00:27;;;;;;;33.57;17.23;;;1.20;99.90;;;-0.05;100.00;94586.78;5069507;28;20517;-78
2023/01/17 09:02:53;;;;;;;34.65;15.93;;;1.30;99.90;;;0.03;100.00;94590.72;5069521;28;20765;-76
2023/01/17 09:05:19;;;;;;;27.42;14.52;;;1.30;99.90;;;-0.07;100.00;94583.63;5066338;28;20419;-76
2023/01/17 09:07:45;;;;;;;30.63;15.43;;;1.20;99.90;;;-0.10;100.00;94581.56;5063711;28;21110;-78
2023/01/17 09:10:11;;;;;;;28.70;15.68;;;1.20;99.90;;;-0.06;100.00;94586.00;5068834;28;20425;-76
2023/01/17 09:12:39;;;;;;;30.75;13.95;;;1.20;99.90;;;-0.05;100.00;94578.97;5069371;28;20399;-76
2023/01/17 09:15:06;;;;;;;26.20;12.93;;;1.20;99.90;;;-0.11;100.00;94582.59;5069734;28;20756;-76
2023/01/17 09:17:33;;;;;;;24.50;13.07;;;1.20;99.90;;;-0.13;100.00;94580.22;5069787;28;20411;-76
2023/01/17 09:19:59;;;;;;;28.95;13.30;;;1.20;99.90;;;-0.08;100.00;94574.28;5069518;28;20488;-76
2023/01/17 09:22:25;;;;;;;24.73;12.80;;;1.20;99.90;;;-0.03;100.00;94575.09;5069415;28;20498;-76
2023/01/17 09:24:52;;;;;;;22.40;10.88;;;1.30;99.90;;;-0.06;100.00;94570.38;5064000;28;20415;-76
2023/01/17 09:27:19;;;;;;;25.67;11.67;;;1.20;99.90;;;-0.02;100.00;94568.06;5059176;28;20742;-76
2023/01/17 09:29:45;;;;;;;22.83;11.40;;;1.30;99.90;;;0.04;100.00;94574.84;5073018;28;20457;-76
2023/01/17 09:32:11;;;;;;;21.25;11.05;;;1.30;99.90;;;0.05;100.00;94566.03;5073016;28;20880;-76
2023/01/17 09:34:39;;;;;;;20.30;10.27;;;1.40;99.90;;;0.10;100.00;94555.63;5073381;28;20494;-76
2023/01/17 09:37:06;;;;;;;20.63;10.80;;;1.40;99.90;;;0.15;100.00;94547.84;5073360;28;20495;-74
2023/01/17 09:39:32;;;;;;;21.85;10.52;;;1.40;99.90;;;0.24;100.00;94553.34;5072706;28;20419;-76
2023/01/17 09:42:08;;;;;;;27.05;11.02;;;1.50;99.90;;;0.24;100.00;94550.72;5072946;28;20431;-76
2023/01/17 09:44:41;;;;;;;21.55;9.95;;;1.50;99.90;;;0.27;100.00;94539.81;5055210;28;20905;-74
2023/01/17 09:47:18;;;;;;;19.20;9.55;;;1.60;99.90;;;0.34;100.00;94540.38;5064726;28;20395;-76
2023/01/17 09:49:46;;;;;;;16.48;8.65;;;1.60;99.90;;;0.39;100.00;94545.56;5073138;28;20399;-77
2023/01/17 09:52:22;;;;;;;16.17;6.90;;;1.70;99.90;;;0.44;100.00;94547.44;5071514;28;20912;-77
2023/01/17 09:54:49;;;;;;;11.55;5.20;;;1.70;99.90;;;0.50;100.00;94541.97;5072867;28;20408;-77
2023/01/17 09:57:39;;;;;;;10.98;4.88;;;1.80;99.90;;;0.93;100.00;94540.72;5074341;28;20449;-77
2023/01/17 10:00:19;;;;;;;9.25;4.53;;;2.10;99.90;;;1.41;100.00;94536.00;5074271;28;20396;-76
2023/01/17 10:03:16;;;;;;;9.63;4.38;;;2.50;99.90;;;1.98;100.00;94534.78;5074581;28;20420;-77
2023/01/17 10:06:00;;;;;;;9.05;3.03;;;3.10;99.90;;;2.71;100.00;94540.94;5075170;28;20836;-79
2023/01/17 10:08:52;;;;;;;7.18;2.35;;;3.70;99.90;;;3.41;100.00;94542.25;5075927;28;20451;-78
2023/01/17 10:11:35;;;;;;;4.95;3.22;;;4.40;99.90;;;4.00;100.00;94530.66;5074220;28;20467;-76
2023/01/17 10:14:22;;;;;;;7.32;3.13;;;4.90;99.90;;;4.37;100.00;94527.31;5073383;28;21032;-78
2023/01/17 10:16:56;;;;;;;48.30;4.32;;;5.40;99.90;;;4.91;100.00;94531.31;5072623;28;20443;-78
2023/01/17 10:19:41;;;;;;;26.88;4.40;;;6.00;99.90;;;5.51;100.00;94531.41;5072472;28;20449;-77
2023/01/17 10:22:39;;;;;;;6.38;2.42;;;6.60;99.90;;;5.84;100.00;94522.41;5072063;28;20472;-77
2023/01/17 10:25:25;;;;;;;8.73;4.80;;;7.10;99.90;;;6.21;100.00;94527.50;5054285;28;20776;-77
2023/01/17 10:27:57;;;;;;;4.78;2.20;;;7.30;99.90;;;6.93;100.00;94535.44;5072201;28;20454;-77
2023/01/17 10:30:31;;;;;;;4.40;2.03;;;8.00;99.90;;;7.42;100.00;94535.66;5072377;28;20436;-78
2023/01/17 10:33:01;;;;;;;3.92;1.75;;;8.50;99.90;;;8.17;100.00;94527.63;5072042;28;20830;-76
2023/01/17 10:35:35;;;;;;;3.20;1.63;;;9.10;99.90;;;8.68;100.00;94516.47;5072150;28;20400;-76
2023/01/17 10:38:10;;;;;;;3.35;1.92;;;9.80;99.90;;;8.97;100.00;94512.44;5061406;28;20452;-76
2023/01/17 10:40:43;;;;;;;4.53;1.80;;;10.20;99.90;;;9.50;100.00;94512.06;5066281;28;20404;-75
2023/01/17 10:43:19;;;;;;;3.22;1.75;;;10.60;99.90;;;9.72;100.00;94509.22;5071180;28;20426;-76
2023/01/17 10:45:52;;;;;;;2.13;1.50;;;10.70;99.90;;;10.07;100.00;94497.44;5071943;28;20967;-76
2023/01/17 10:48:37;;;;;;;2.80;1.58;;;11.20;99.90;;;10.43;100.00;94502.28;5072096;28;20404;-76
2023/01/17 10:51:18;;;;;;;2.33;1.30;;;11.50;99.90;;;10.93;100.00;94503.34;5072053;28;20396;-76
2023/01/17 10:54:09;;;;;;;3.50;1.60;;;12.00;99.90;;;11.32;100.00;94496.78;5071431;28;20424;-75
2023/01/17 10:56:39;;;;;;;2.28;1.30;;;12.60;99.90;;;11.59;100.00;94491.69;5072013;28;20408;-76
2023/01/17 10:59:17;;;;;;;2.92;1.60;;;12.70;99.90;;;11.53;100.00;94493.00;5071922;28;20403;-77
2023/01/17 11:01:44;;;;;;;2.30;1.30;;;12.90;99.90;;;11.54;100.00;94491.91;5068467;28;20416;-77
2023/01/17 11:04:16;;;;;;;1.63;1.10;;;12.90;99.90;;;11.96;100.00;94481.94;5063040;28;20987;-76
2023/01/17 11:06:46;;;;;;;2.97;1.50;;;13.10;99.90;;;11.87;100.00;94494.53;5071703;28;20497;-74
2023/01/17 11:09:13;;;;;;;3.05;1.30;;;13.20;99.90;;;11.95;100.00;94490.25;5071705;28;20479;-74
2023/01/17 11:11:48;;;;;;;2.47;1.40;;;13.20;99.90;;;12.18;100.00;94486.03;5071701;28;20400;-74
2023/01/17 11:14:19;;;;;;;1.52;1.17;;;13.40;99.90;;;11.95;100.00;94500.84;5070366;28;20396;-74
2023/01/17 11:17:00;;;;;;;3.17;1.70;;;13.20;99.90;;;11.03;100.00;94492.38;5071595;28;20391;-74
2023/01/17 11:19:30;;;;;;;3.40;1.60;;;12.20;99.90;;;11.06;100.00;94481.13;5069527;28;20896;-75
2023/01/17 11:22:03;;;;;;;3.35;1.30;;;12.10;99.90;;;10.99;100.00;94476.34;5065847;28;20777;-75
2023/01/17 11:24:37;;;;;;;3.72;1.50;;;12.10;99.90;;;11.22;100.00;94456.38;5065591;28;20773;-75
2023/01/17 11:27:05;;;;;;;2.10;1.10;;;12.40;99.90;;;11.44;100.00;94457.09;5053246;28;20784;-76
2023/01/17 11:29:35;;;;;;;2.45;1.20;;;12.60;99.90;;;11.59;100.00;94449.28;5070870;28;20960;-75
2023/01/17 11:32:29;;;;;;;2.15;1.10;;;12.70;99.90;;;11.24;100.00;94456.06;5069522;28;20396;-76
2023/01/17 11:35:18;;;;;;;1.98;1.20;;;12.20;97.50;;;10.99;100.00;94439.28;5070450;28;20400;-76
2023/01/17 11:37:58;;;;;;;2.17;1.30;;;11.80;99.90;;;11.21;100.00;94443.44;5070654;28;20415;-75
2023/01/17 11:40:28;;;;;;;2.40;1.30;;;12.10;99.90;;;11.44;100.00;94460.50;5052995;28;20403;-76
2023/01/17 11:43:17;;;;;;;2.20;1.25;;;12.40;99.90;;;11.69;100.00;94461.34;5070795;28;20415;-77
2023/01/17 11:45:44;;;;;;;2.35;1.13;;;12.50;99.90;;;12.20;100.00;94440.63;5071059;28;20772;-75